createdAt,value
2022-10-17T00:01:08.670Z,10.40
2022-10-17T00:03:38.334Z,6.43
2022-10-17T00:06:12.263Z,10.00
2022-10-17T00:08:41.579Z,8.07
2022-10-17T00:11:20.297Z,9.05
2022-10-17T00:13:51.460Z,8.23
2022-10-17T00:16:33.882Z,8.07
2022-10-17T00:19:01.664Z,8.05
2022-10-17T00:21:29.472Z,9.75
2022-10-17T00:23:57.306Z,8.82
2022-10-17T00:26:25.098Z,42.60
2022-10-17T00:28:53.560Z,16.27
2022-10-17T00:31:24.020Z,8.95
2022-10-17T00:33:52.861Z,8.65
2022-10-17T00:36:26.729Z,7.07
2022-10-17T00:38:59.236Z,7.18
2022-10-17T00:41:33.816Z,7.05
2022-10-17T00:44:06.339Z,9.25
2022-10-17T00:46:39.333Z,8.63
2022-10-17T00:49:12.778Z,8.50
2022-10-17T00:52:11.875Z,8.20
2022-10-17T00:54:58.237Z,8.07
2022-10-17T00:57:29.494Z,7.90
2022-10-17T01:00:00.372Z,8.20
2022-10-17T01:02:28.799Z,8.38
2022-10-17T01:04:59.618Z,6.65
2022-10-17T01:07:33.157Z,7.35
2022-10-17T01:10:06.568Z,6.35
2022-10-17T01:12:56.930Z,7.63
2022-10-17T01:15:38.334Z,7.65
2022-10-17T01:18:19.941Z,31.15
2022-10-17T01:21:06.269Z,24.05
2022-10-17T01:24:00.382Z,23.40
2022-10-17T01:27:08.080Z,16.50
2022-10-17T01:30:13.760Z,9.90
2022-10-17T01:32:54.051Z,8.70
2022-10-17T01:35:44.873Z,6.93
2022-10-17T01:38:39.957Z,6.75
2022-10-17T01:41:36.279Z,6.40
2022-10-17T01:44:18.241Z,7.57
2022-10-17T01:47:05.577Z,14.30
2022-10-17T01:49:37.700Z,16.52
2022-10-17T01:52:24.791Z,8.57
2022-10-17T01:55:18.437Z,5.07
2022-10-17T01:58:01.218Z,6.72
2022-10-17T02:00:32.503Z,6.68
2022-10-17T02:03:06.416Z,5.47
2022-10-17T02:05:40.588Z,7.97
2022-10-17T02:08:08.776Z,15.25
2022-10-17T02:16:58.546Z,18.38
2022-10-17T02:19:46.703Z,8.32
2022-10-17T02:22:54.130Z,8.55
2022-10-17T02:25:45.977Z,6.32
2022-10-17T02:28:29.264Z,7.10
2022-10-17T02:31:29.287Z,6.88
2022-10-17T02:34:13.444Z,15.13
2022-10-17T02:36:51.273Z,8.88
2022-10-17T02:39:23.434Z,9.57
2022-10-17T02:41:55.300Z,7.43
2022-10-17T02:44:24.516Z,6.53
2022-10-17T02:47:18.398Z,8.60
2022-10-17T02:49:52.659Z,7.07
2022-10-17T02:52:38.510Z,6.00
2022-10-17T02:55:48.407Z,7.63
2022-10-17T02:58:23.940Z,8.70
2022-10-17T03:00:52.943Z,6.55
2022-10-17T03:03:30.875Z,11.98
2022-10-17T03:06:02.268Z,23.17
2022-10-17T03:08:30.430Z,70.05
2022-10-17T03:10:58.277Z,30.05
2022-10-17T03:13:30.635Z,16.77
2022-10-17T03:15:58.883Z,20.55
2022-10-17T03:18:26.735Z,39.35
2022-10-17T03:20:59.114Z,57.42
2022-10-17T03:23:26.989Z,30.83
2022-10-17T03:25:54.777Z,48.05
2022-10-17T03:28:23.486Z,46.60
2022-10-17T03:30:51.229Z,23.80
2022-10-17T03:33:19.114Z,10.60
2022-10-17T03:35:47.008Z,8.00
2022-10-17T03:38:14.994Z,8.18
2022-10-17T03:40:42.787Z,7.53
2022-10-17T03:43:11.958Z,7.55
2022-10-17T03:45:41.445Z,7.63
2022-10-17T03:48:09.297Z,9.70
2022-10-17T03:50:36.989Z,11.13
2022-10-17T03:53:04.842Z,52.22
2022-10-17T03:55:32.544Z,97.93
2022-10-17T03:58:00.307Z,83.28
2022-10-17T04:00:28.754Z,41.95
2022-10-17T04:02:59.275Z,39.67
2022-10-17T04:05:27.849Z,14.68
2022-10-17T04:07:58.761Z,9.68
2022-10-17T04:10:48.599Z,7.18
2022-10-17T04:13:16.337Z,7.22
2022-10-17T04:16:08.462Z,9.48
2022-10-17T04:18:42.483Z,7.57
2022-10-17T04:21:12.503Z,6.57
2022-10-17T04:26:19.949Z,6.13
2022-10-17T04:28:47.734Z,7.47
2022-10-17T04:31:16.568Z,8.90
2022-10-17T04:34:04.201Z,11.68
2022-10-17T04:36:32.339Z,10.32
2022-10-17T04:39:05.951Z,8.27
2022-10-17T04:41:34.158Z,7.32
2022-10-17T04:44:03.051Z,8.07
2022-10-17T04:46:35.053Z,7.53
2022-10-17T04:49:03.567Z,7.90
2022-10-17T04:51:31.658Z,6.63
2022-10-17T04:54:19.710Z,7.60
2022-10-17T04:56:51.664Z,8.63
2022-10-17T04:59:19.566Z,8.02
2022-10-17T05:01:50.306Z,8.07
2022-10-17T05:04:22.353Z,7.80
2022-10-17T05:06:54.118Z,7.20
2022-10-17T05:09:40.767Z,8.15
2022-10-17T05:12:10.392Z,8.35
2022-10-17T05:14:41.504Z,6.75
2022-10-17T05:17:09.236Z,8.05
2022-10-17T05:19:38.092Z,38.30
2022-10-17T05:22:07.549Z,49.95
2022-10-17T05:24:35.283Z,26.65
2022-10-17T05:27:03.194Z,36.38
2022-10-17T05:29:31.309Z,19.17
2022-10-17T05:32:07.492Z,12.02
2022-10-17T05:34:36.135Z,11.13
2022-10-17T05:37:03.904Z,25.00
2022-10-17T05:39:33.466Z,12.88
2022-10-17T05:42:01.332Z,10.85
2022-10-17T05:44:29.651Z,12.88
2022-10-17T05:49:45.040Z,13.25
2022-10-17T05:52:17.526Z,13.15
2022-10-17T05:54:57.203Z,13.35
2022-10-17T05:57:26.652Z,13.75
2022-10-17T05:59:54.887Z,30.13
2022-10-17T06:02:23.039Z,22.00
2022-10-17T06:04:51.110Z,33.28
2022-10-17T06:07:21.290Z,20.85
2022-10-17T06:09:49.932Z,20.55
2022-10-17T06:12:17.899Z,18.75
2022-10-17T06:14:46.644Z,15.95
2022-10-17T06:17:16.352Z,15.77
2022-10-17T06:19:45.292Z,19.45
2022-10-17T06:22:15.488Z,17.38
2022-10-17T06:24:47.083Z,17.63
2022-10-17T06:27:15.617Z,21.48
2022-10-17T06:29:43.298Z,20.63
2022-10-17T06:32:14.949Z,24.13
2022-10-17T06:34:45.920Z,29.00
2022-10-17T06:37:13.730Z,29.33
2022-10-17T06:39:42.895Z,25.52
2022-10-17T06:42:17.013Z,26.75
2022-10-17T06:44:48.691Z,25.42
2022-10-17T06:47:36.069Z,20.65
2022-10-17T06:50:13.289Z,17.77
2022-10-17T06:52:52.294Z,15.23
2022-10-17T08:18:13.864Z,8.88
2022-10-17T08:20:42.677Z,8.85
2022-10-17T08:23:10.682Z,12.38
2022-10-17T08:25:39.974Z,20.70
2022-10-17T08:30:40.454Z,14.38
2022-10-17T08:33:08.159Z,10.25
2022-10-17T08:35:36.174Z,10.88
2022-10-17T08:38:04.477Z,9.25
2022-10-17T08:40:33.894Z,7.07
2022-10-17T08:43:12.296Z,6.47
2022-10-17T08:46:02.922Z,7.13
2022-10-17T08:48:42.729Z,6.68
2022-10-17T08:51:26.118Z,6.63
2022-10-17T08:54:44.271Z,7.28
2022-10-17T08:57:17.456Z,7.07
2022-10-17T08:59:52.090Z,7.47
2022-10-17T09:02:52.182Z,7.07
2022-10-17T09:05:32.735Z,8.20
2022-10-17T09:08:05.401Z,9.60
2022-10-17T09:10:49.480Z,9.15
2022-10-17T09:13:41.413Z,8.32
2022-10-17T09:16:45.034Z,8.80
2022-10-17T09:19:43.077Z,7.75
2022-10-17T09:22:23.088Z,8.05
2022-10-17T09:24:55.974Z,7.90
2022-10-17T09:28:03.646Z,6.75
2022-10-17T09:30:56.854Z,6.97
2022-10-17T09:33:56.633Z,6.50
2022-10-17T09:36:36.060Z,6.50
2022-10-17T09:39:24.778Z,6.30
2022-10-17T09:41:56.991Z,5.50
2022-10-17T09:44:57.551Z,6.40
2022-10-17T09:47:45.927Z,6.40
2022-10-17T09:50:32.732Z,6.10
2022-10-17T09:53:15.106Z,6.10
2022-10-17T09:55:56.171Z,5.82
2022-10-17T09:58:24.649Z,5.90
2022-10-17T10:00:52.349Z,5.97
2022-10-17T10:03:25.124Z,6.80
2022-10-17T10:06:18.247Z,6.07
2022-10-17T10:08:58.807Z,6.57
2022-10-17T10:11:51.312Z,6.20
2022-10-17T10:14:37.717Z,7.22
2022-10-17T10:17:25.740Z,6.80
2022-10-17T10:19:54.242Z,7.35
2022-10-17T10:22:23.935Z,6.25
2022-10-17T10:25:17.637Z,5.97
2022-10-17T10:27:47.794Z,7.22
2022-10-17T10:35:37.674Z,6.53
2022-10-17T10:38:16.622Z,6.65
2022-10-17T10:40:52.490Z,7.18
2022-10-17T10:43:29.928Z,6.18
2022-10-17T10:45:58.440Z,11.40
2022-10-17T10:48:32.611Z,9.73
2022-10-17T10:51:14.395Z,7.40
2022-10-17T10:53:54.635Z,6.35
2022-10-17T10:56:37.401Z,6.32
2022-10-17T10:59:37.249Z,6.93
2022-10-17T11:02:26.767Z,7.57
2022-10-17T11:08:12.080Z,7.35
2022-10-17T11:11:27.798Z,6.72
2022-10-17T11:14:03.731Z,7.32
2022-10-17T11:16:42.038Z,6.78
2022-10-17T11:19:24.826Z,6.53
2022-10-17T11:22:26.642Z,6.28
2022-10-17T11:25:33.139Z,6.22
2022-10-17T11:28:10.776Z,5.45
2022-10-17T11:31:07.965Z,5.22
2022-10-17T11:33:58.940Z,6.00
2022-10-17T11:36:32.799Z,5.82
2022-10-17T11:39:08.930Z,6.03
2022-10-17T11:42:03.518Z,5.10
2022-10-17T11:44:41.394Z,5.80
2022-10-17T11:47:16.566Z,4.88
2022-10-17T11:49:52.239Z,4.97
2022-10-17T11:55:31.162Z,4.82
2022-10-17T11:58:26.780Z,5.05
2022-10-17T12:01:18.736Z,5.00
2022-10-17T12:04:34.181Z,5.35
2022-10-17T12:07:24.787Z,10.18
2022-10-17T12:10:35.932Z,6.65
2022-10-17T12:13:28.810Z,5.97
2022-10-17T12:16:18.259Z,7.05
2022-10-17T12:21:15.585Z,6.53
2022-10-17T12:23:54.233Z,4.53
2022-10-17T12:26:31.206Z,7.03
2022-10-17T12:28:59.258Z,4.32
2022-10-17T12:31:33.665Z,6.85
2022-10-17T12:34:04.799Z,4.43
2022-10-17T12:36:32.391Z,4.28
2022-10-17T12:39:03.135Z,4.22
2022-10-17T12:41:39.703Z,4.07
2022-10-17T12:44:14.035Z,3.88
2022-10-17T12:46:52.771Z,3.80
2022-10-17T12:49:45.722Z,3.95
2022-10-17T12:52:29.651Z,4.47
2022-10-17T12:55:17.608Z,4.03
2022-10-17T12:57:50.759Z,4.75
2022-10-17T13:01:11.628Z,4.07
2022-10-17T13:03:47.734Z,4.18
2022-10-17T13:06:28.112Z,3.80
2022-10-17T13:09:05.573Z,4.78
2022-10-17T13:11:37.921Z,4.00
2022-10-17T13:14:15.298Z,4.40
2022-10-17T13:16:59.348Z,4.30
2022-10-17T13:19:42.063Z,5.25
2022-10-17T13:22:28.325Z,4.97
2022-10-17T13:25:09.879Z,6.13
2022-10-17T13:27:37.948Z,5.18
2022-10-17T13:30:29.357Z,4.75
2022-10-17T13:33:01.521Z,4.10
2022-10-17T13:35:58.872Z,4.18
2022-10-17T13:38:29.664Z,3.85
2022-10-17T13:41:02.034Z,5.10
2022-10-17T13:43:45.012Z,4.95
2022-10-17T13:46:37.970Z,4.20
2022-10-17T13:49:36.994Z,5.05
2022-10-17T13:52:07.747Z,4.72
2022-10-17T13:54:42.423Z,4.40
2022-10-17T13:57:29.130Z,4.20
2022-10-17T14:00:23.603Z,4.38
2022-10-17T14:02:51.334Z,3.92
2022-10-17T14:05:23.395Z,3.78
2022-10-17T14:10:44.436Z,4.45
2022-10-17T14:15:55.318Z,3.60
2022-10-17T14:18:36.389Z,3.53
2022-10-17T14:27:00.665Z,3.17
2022-10-17T14:29:51.090Z,3.30
2022-10-17T14:32:20.267Z,7.47
2022-10-17T14:35:01.413Z,17.50
2022-10-17T14:37:41.390Z,96.45
2022-10-17T14:40:24.062Z,25.38
2022-10-17T14:42:55.333Z,16.92
2022-10-17T14:45:39.690Z,16.27
2022-10-17T14:48:15.289Z,6.88
2022-10-17T14:51:14.247Z,7.78
2022-10-17T14:54:01.651Z,4.85
2022-10-17T14:56:53.571Z,7.15
2022-10-17T14:59:48.526Z,7.15
2022-10-17T15:02:12.248Z,5.97
2022-10-17T15:04:39.859Z,13.38
2022-10-17T15:07:07.658Z,6.38
2022-10-17T15:09:35.378Z,5.13
2022-10-17T15:12:10.774Z,12.13
2022-10-17T15:14:38.420Z,6.65
2022-10-17T15:17:24.366Z,5.38
2022-10-17T15:19:52.344Z,6.55
2022-10-17T15:22:20.110Z,5.10
2022-10-17T15:24:48.406Z,7.60
2022-10-17T15:27:20.724Z,8.57
2022-10-17T15:29:49.942Z,8.52
2022-10-17T15:32:17.745Z,8.05
2022-10-17T15:34:45.547Z,8.85
2022-10-17T15:37:24.327Z,6.05
2022-10-17T15:39:55.254Z,12.38
2022-10-17T15:42:28.583Z,10.50
2022-10-17T15:44:57.231Z,12.30
2022-10-17T15:47:33.946Z,40.80
2022-10-17T15:50:03.199Z,46.13
2022-10-17T15:52:30.998Z,26.83
2022-10-17T15:55:00.994Z,56.63
2022-10-17T15:57:40.055Z,62.38
2022-10-17T16:00:22.265Z,51.88
2022-10-17T16:02:50.876Z,32.03
2022-10-17T16:05:25.642Z,24.88
2022-10-17T16:07:54.502Z,30.08
2022-10-17T16:10:23.576Z,23.85
2022-10-17T16:12:51.634Z,19.73
2022-10-17T16:15:28.603Z,16.73
2022-10-17T16:18:00.441Z,15.80
2022-10-17T16:20:31.818Z,15.88
2022-10-17T16:23:02.424Z,17.63
2022-10-17T16:25:32.115Z,25.63
2022-10-17T16:28:01.043Z,30.90
2022-10-17T16:30:31.866Z,16.40
2022-10-17T16:32:59.852Z,14.48
2022-10-17T16:35:33.354Z,9.85
2022-10-17T16:38:06.890Z,8.70
2022-10-17T16:43:07.969Z,10.10
2022-10-17T16:45:36.622Z,12.73
2022-10-17T16:48:04.828Z,14.10
2022-10-17T16:50:35.665Z,14.98
2022-10-17T16:53:04.028Z,31.20
2022-10-17T16:55:31.768Z,20.67
2022-10-17T16:58:00.156Z,25.17
2022-10-17T17:00:28.017Z,12.75
2022-10-17T17:02:55.754Z,12.25
2022-10-17T17:05:23.557Z,9.25
2022-10-17T17:07:51.606Z,11.18
2022-10-17T17:10:19.381Z,9.20
2022-10-17T17:12:47.191Z,12.30
2022-10-17T17:15:14.966Z,19.08
2022-10-17T17:17:51.240Z,26.60
2022-10-17T17:20:21.150Z,15.75
2022-10-17T17:22:50.863Z,12.65
2022-10-17T17:25:18.661Z,14.18
2022-10-17T17:27:46.351Z,12.00
2022-10-17T17:30:14.187Z,11.43
2022-10-17T17:32:41.931Z,11.30
2022-10-17T17:35:10.092Z,10.63
2022-10-17T17:37:37.867Z,17.85
2022-10-17T17:40:06.567Z,20.20
2022-10-17T17:42:34.239Z,12.82
2022-10-17T17:45:02.062Z,10.48
2022-10-17T17:47:30.156Z,10.18
2022-10-17T17:49:58.133Z,11.70
2022-10-17T17:52:25.920Z,14.32
2022-10-17T17:54:53.742Z,17.17
2022-10-17T17:57:21.650Z,19.38
2022-10-17T17:59:50.164Z,20.73
2022-10-17T18:02:17.938Z,50.38
2022-10-17T18:04:45.754Z,111.95
2022-10-17T18:07:13.424Z,75.90
2022-10-17T18:09:41.312Z,75.00
2022-10-17T18:12:09.579Z,23.77
2022-10-17T18:14:37.537Z,25.15
2022-10-17T18:17:05.247Z,19.55
2022-10-17T18:19:32.963Z,11.70
2022-10-17T18:22:00.665Z,24.70
2022-10-17T18:24:28.399Z,29.95
2022-10-17T18:26:59.750Z,36.00
2022-10-17T18:29:29.569Z,18.60
2022-10-17T18:31:57.319Z,11.50
2022-10-17T18:34:27.245Z,11.55
2022-10-17T18:36:55.094Z,10.68
2022-10-17T18:39:23.048Z,20.80
2022-10-17T18:41:50.732Z,28.13
2022-10-17T18:44:18.443Z,22.38
2022-10-17T18:46:47.051Z,21.25
2022-10-17T18:49:20.404Z,14.32
2022-10-17T18:51:48.144Z,8.98
2022-10-17T18:54:21.273Z,10.98
2022-10-17T18:56:54.608Z,10.55
2022-10-17T18:59:22.892Z,12.13
2022-10-17T19:01:50.808Z,19.85
2022-10-17T19:04:18.615Z,26.90
2022-10-17T19:06:46.435Z,29.02
2022-10-17T19:09:15.829Z,17.65
2022-10-17T19:11:44.137Z,15.48
2022-10-17T19:14:13.581Z,16.27
2022-10-17T19:16:46.846Z,15.15
2022-10-17T19:19:19.930Z,10.82
2022-10-17T19:21:49.088Z,10.60
2022-10-17T19:24:26.073Z,21.85
2022-10-17T19:26:59.736Z,10.73
2022-10-17T19:29:31.392Z,8.88
2022-10-17T19:32:00.546Z,9.23
2022-10-17T19:34:28.350Z,9.82
2022-10-17T19:36:56.015Z,34.47
2022-10-17T19:39:25.177Z,15.88
2022-10-17T19:41:53.014Z,13.25
2022-10-17T19:44:20.806Z,9.57
2022-10-17T19:46:49.437Z,30.65
2022-10-17T19:49:18.114Z,35.15
2022-10-17T19:51:45.946Z,24.35
2022-10-17T19:54:15.201Z,21.90
2022-10-17T19:56:43.596Z,41.72
2022-10-17T19:59:14.653Z,28.20
2022-10-17T20:01:42.864Z,22.40
2022-10-17T20:04:12.414Z,29.77
2022-10-17T20:06:41.586Z,18.08
2022-10-17T20:09:14.053Z,14.02
2022-10-17T20:11:45.110Z,15.30
2022-10-17T20:14:12.843Z,14.82
2022-10-17T20:16:40.572Z,13.75
2022-10-17T20:19:12.245Z,11.63
2022-10-17T20:21:40.291Z,11.38
2022-10-17T20:24:13.459Z,10.35
2022-10-17T20:26:41.587Z,8.98
2022-10-17T20:29:16.836Z,10.30
2022-10-17T20:31:46.546Z,9.38
2022-10-17T20:34:18.026Z,12.25
2022-10-17T20:36:46.826Z,10.60
2022-10-17T20:39:18.066Z,19.02
2022-10-17T20:41:47.382Z,9.63
2022-10-17T20:44:16.128Z,8.32
2022-10-17T20:46:57.613Z,7.57
2022-10-17T20:49:30.914Z,10.63
2022-10-17T20:52:00.719Z,14.93
2022-10-17T20:54:28.732Z,16.75
2022-10-17T20:56:58.722Z,8.40
2022-10-17T20:59:28.823Z,8.32
2022-10-17T21:01:56.622Z,32.30
2022-10-17T21:07:11.931Z,7.25
2022-10-17T21:09:39.595Z,6.50
2022-10-17T21:12:07.437Z,11.07
2022-10-17T21:14:36.476Z,11.00
2022-10-17T21:17:05.511Z,12.90
2022-10-17T21:19:33.935Z,11.38
2022-10-17T21:22:01.847Z,9.68
2022-10-17T21:24:30.839Z,8.52
2022-10-17T21:26:59.403Z,7.38
2022-10-17T21:29:27.249Z,7.25
2022-10-17T21:31:55.006Z,11.10
2022-10-17T21:34:25.177Z,10.70
2022-10-17T21:36:53.441Z,18.88
2022-10-17T21:39:23.011Z,13.52
2022-10-17T21:41:51.647Z,8.75
2022-10-17T21:44:23.646Z,7.30
2022-10-17T21:46:52.441Z,9.10
2022-10-17T21:49:23.702Z,25.98
2022-10-17T21:51:53.591Z,10.85
2022-10-17T21:54:23.620Z,9.93
2022-10-17T21:56:52.448Z,9.73
2022-10-17T21:59:20.116Z,33.47
2022-10-17T22:01:47.939Z,12.00
2022-10-17T22:04:18.634Z,8.68
2022-10-17T22:06:51.225Z,7.93
2022-10-17T22:09:24.534Z,7.60
2022-10-17T22:11:56.775Z,7.00
2022-10-17T22:14:26.953Z,8.02
2022-10-17T22:16:55.584Z,7.00
2022-10-17T22:19:26.466Z,7.78
2022-10-17T22:21:55.150Z,8.82
2022-10-17T22:24:23.906Z,8.45
2022-10-17T22:26:51.923Z,10.93
2022-10-17T22:29:20.379Z,13.18
2022-10-17T22:31:48.149Z,8.85
2022-10-17T22:34:17.698Z,26.17
2022-10-17T22:36:47.737Z,11.38
2022-10-17T22:39:15.490Z,8.05
2022-10-17T22:41:43.206Z,6.38
2022-10-17T22:44:10.899Z,6.63
2022-10-17T22:46:38.906Z,8.77
2022-10-17T22:49:06.650Z,20.67
2022-10-17T22:51:34.443Z,12.27
2022-10-17T22:54:02.112Z,8.23
2022-10-17T22:56:29.895Z,6.53
2022-10-17T22:58:57.566Z,7.80
2022-10-17T23:01:26.391Z,11.35
2022-10-17T23:03:54.121Z,9.30
2022-10-17T23:06:22.726Z,11.30
2022-10-17T23:08:50.644Z,10.15
2022-10-17T23:11:18.414Z,8.13
2022-10-17T23:13:46.136Z,7.20
2022-10-17T23:16:13.911Z,8.95
2022-10-17T23:18:42.282Z,8.95
2022-10-17T23:21:10.531Z,10.48
2022-10-17T23:23:38.836Z,9.43
2022-10-17T23:26:10.781Z,18.65
2022-10-17T23:28:38.955Z,11.23
2022-10-17T23:31:19.768Z,14.25
2022-10-17T23:33:49.823Z,13.80
2022-10-17T23:36:20.556Z,13.52
2022-10-17T23:41:18.377Z,14.82
2022-10-17T23:43:46.251Z,17.30
2022-10-17T23:46:13.992Z,8.25
2022-10-17T23:48:41.789Z,6.85
2022-10-17T23:51:11.176Z,5.57
2022-10-17T23:53:40.557Z,5.78
2022-10-17T23:56:10.445Z,7.35
2022-10-17T23:58:39.795Z,6.70
